Time;durP1;ratioP1;P1;durP2;ratioP2;P2;SDS_P1;SDS_P2;PMS_P1;PMS_P2;Temp;Humidity;BMP_temperature;BMP_pressure;BME280_temperature;BME280_humidity;BME280_pressure;Samples;Min_cycle;Max_cycle;Signal;HPM_P1;HPM_P2
2023/08/07 00:01:27;;;;;;;8.40;8.20;;;12.10;99.90;;;;;;6229406;23;20251;-86
2023/08/07 00:03:54;;;;;;;8.40;8.20;;;12.10;99.90;;;;;;6148703;23;20190;-85
2023/08/07 00:06:36;;;;;;;8.47;8.27;;;12.10;99.90;;;;;;6245383;22;20207;-85
2023/08/07 00:09:23;;;;;;;8.70;8.40;;;12.10;99.90;;;;;;6232675;23;20227;-86
2023/08/07 00:12:30;;;;;;;8.50;8.30;;;12.10;99.90;;;;;;6230056;23;20257;-86
2023/08/07 00:15:16;;;;;;;8.57;8.37;;;12.10;99.90;;;;;;6229535;23;20221;-85
2023/08/07 00:18:24;;;;;;;8.70;8.40;;;12.10;99.90;;;;;;6228475;23;20210;-87
2023/08/07 00:21:38;;;;;;;8.70;8.40;;;12.00;99.90;;;;;;6125971;23;20274;-85
2023/08/07 00:24:16;;;;;;;8.73;8.43;;;12.00;99.90;;;;;;6211865;23;20334;-85
2023/08/07 00:27:35;;;;;;;8.77;8.47;;;12.00;99.90;;;;;;6227971;23;20199;-85
2023/08/07 00:30:15;;;;;;;8.40;8.20;;;12.00;99.90;;;;;;6235545;22;20289;-86
2023/08/07 00:33:25;;;;;;;9.10;8.80;;;12.00;99.90;;;;;;6248585;22;20179;-85
2023/08/07 00:37:15;;;;;;;9.20;8.90;;;12.00;99.90;;;;;;6191538;23;20198;-85
2023/08/07 00:44:38;;;;;;;9.10;8.80;;;11.90;99.90;;;;;;6156164;23;20196;-85
2023/08/07 00:50:47;;;;;;;8.80;8.50;;;11.90;99.90;;;;;;6133956;23;20199;-85
2023/08/07 00:53:18;;;;;;;8.30;8.10;;;11.90;99.90;;;;;;6217035;23;20208;-84
2023/08/07 00:55:52;;;;;;;8.27;8.07;;;11.90;99.90;;;;;;6232788;23;20191;-84
2023/08/07 00:58:32;;;;;;;8.93;8.63;;;11.80;99.90;;;;;;6229569;23;21021;-86
2023/08/07 01:01:24;;;;;;;8.70;8.40;;;11.80;99.90;;;;;;6227673;23;20198;-85
2023/08/07 01:04:00;;;;;;;8.50;8.30;;;11.90;99.90;;;;;;6229072;23;20288;-85
2023/08/07 01:06:38;;;;;;;8.90;8.60;;;11.80;99.90;;;;;;6228905;23;20246;-85
2023/08/07 01:09:31;;;;;;;8.30;8.10;;;11.80;99.90;;;;;;6229576;23;20263;-85
2023/08/07 01:12:13;;;;;;;8.50;8.30;;;11.80;99.90;;;;;;6229435;23;20198;-85
2023/08/07 01:14:56;;;;;;;8.70;8.40;;;11.80;99.90;;;;;;6230318;23;20195;-85
2023/08/07 01:17:35;;;;;;;8.63;8.33;;;11.80;99.90;;;;;;6230217;23;20195;-85
2023/08/07 01:24:22;;;;;;;8.70;8.40;;;11.80;99.90;;;;;;6072176;23;20207;-84
2023/08/07 01:26:55;;;;;;;8.53;8.33;;;11.70;99.90;;;;;;6177926;23;20213;-85
2023/08/07 01:29:47;;;;;;;8.47;8.27;;;11.70;99.90;;;;;;6230512;23;20242;-85
2023/08/07 01:39:20;;;;;;;9.30;9.00;;;11.70;99.90;;;;;;6197101;23;20207;-84
2023/08/07 01:57:25;;;;;;;;;;;;;;;;;;;;;
2023/08/07 02:00:20;;;;;;;9.27;8.97;;;11.70;99.90;;;;;;6046912;23;20202;-84
2023/08/07 02:03:34;;;;;;;9.20;8.90;;;11.70;99.90;;;;;;6078019;23;20292;-85
2023/08/07 02:06:18;;;;;;;9.10;8.80;;;11.70;99.90;;;;;;6170521;23;20227;-84
2023/08/07 02:16:22;;;;;;;9.10;8.80;;;11.60;99.90;;;;;;5832062;24;20214;-84
2023/08/07 02:21:50;;;;;;;9.10;8.80;;;11.60;99.90;;;;;;6163127;23;20205;-84
2023/08/07 02:25:07;;;;;;;;;;;;;;;;;;;;;
2023/08/07 02:28:08;;;;;;;9.07;8.77;;;11.60;99.90;;;;;;6169666;23;20236;-84
2023/08/07 02:30:39;;;;;;;8.87;8.57;;;11.60;99.90;;;;;;6168561;23;20198;-85
2023/08/07 02:33:32;;;;;;;;;;;;;;;;;;;;;
2023/08/07 02:36:19;;;;;;;8.90;8.60;;;11.60;99.90;;;;;;6170620;23;20267;-85
2023/08/07 02:38:58;;;;;;;8.80;8.50;;;11.60;99.90;;;;;;6171182;23;20204;-84
2023/08/07 02:41:48;;;;;;;8.80;8.50;;;11.60;99.90;;;;;;6177265;23;20279;-85
2023/08/07 02:44:39;;;;;;;8.70;8.40;;;11.60;99.90;;;;;;6158348;23;20196;-85
2023/08/07 02:47:08;;;;;;;8.73;8.43;;;11.60;99.90;;;;;;6168159;23;20279;-84
2023/08/07 02:50:20;;;;;;;;;;;;;;;;;;;;;
2023/08/07 03:00:13;;;;;;;8.43;8.23;;;11.50;99.90;;;;;;6169491;23;20220;-85
2023/08/07 03:03:06;;;;;;;8.70;8.50;;;11.50;99.90;;;;;;6169560;23;20207;-85
2023/08/07 03:09:58;;;;;;;8.50;8.30;;;11.50;99.90;;;;;;6153507;23;20196;-85
2023/08/07 03:19:14;;;;;;;8.40;8.20;;;11.50;99.90;;;;;;6161939;23;20207;-85
2023/08/07 03:25:13;;;;;;;8.40;8.20;;;11.50;99.90;;;;;;6169409;22;20195;-78
2023/08/07 03:27:40;;;;;;;8.63;8.40;;;11.50;99.90;;;;;;6309822;22;20192;-78
2023/08/07 03:30:08;;;;;;;8.70;8.40;;;11.50;99.90;;;;;;6315257;22;20267;-78
2023/08/07 03:32:35;;;;;;;8.80;8.50;;;11.50;99.90;;;;;;6323306;22;20209;-79
2023/08/07 03:35:03;;;;;;;8.90;8.60;;;11.50;99.90;;;;;;6326038;22;20193;-79
2023/08/07 03:37:30;;;;;;;8.90;8.60;;;11.50;99.90;;;;;;6323895;22;20193;-80
2023/08/07 03:39:57;;;;;;;9.00;8.70;;;11.50;99.90;;;;;;6319910;22;20205;-80
2023/08/07 03:42:25;;;;;;;8.90;8.60;;;11.50;99.90;;;;;;6320036;22;20239;-79
2023/08/07 03:44:52;;;;;;;9.00;8.70;;;11.50;99.90;;;;;;6327508;22;20177;-79
2023/08/07 03:47:20;;;;;;;9.17;8.87;;;11.50;99.90;;;;;;6317402;22;20305;-80
2023/08/07 03:49:47;;;;;;;8.77;8.47;;;11.50;99.90;;;;;;6321749;22;20228;-80
2023/08/07 03:52:14;;;;;;;8.83;8.53;;;11.40;99.90;;;;;;6319773;22;20201;-79
2023/08/07 03:54:41;;;;;;;9.30;9.00;;;11.50;99.90;;;;;;6321703;22;20223;-79
2023/08/07 03:57:10;;;;;;;9.30;9.00;;;11.40;99.90;;;;;;6322346;22;20223;-79
2023/08/07 03:59:39;;;;;;;9.60;9.30;;;11.40;99.90;;;;;;6322318;22;20208;-79
2023/08/07 04:02:06;;;;;;;9.33;9.03;;;11.40;99.90;;;;;;6319761;22;20193;-79
2023/08/07 04:04:33;;;;;;;8.90;8.60;;;11.40;99.90;;;;;;6319820;22;20197;-79
2023/08/07 04:07:00;;;;;;;9.23;8.93;;;11.40;99.90;;;;;;6319790;22;20259;-78
2023/08/07 04:09:28;;;;;;;9.40;9.10;;;11.40;99.90;;;;;;6318999;22;20197;-79
2023/08/07 04:11:56;;;;;;;9.33;9.03;;;11.40;99.90;;;;;;6319061;22;20192;-79
2023/08/07 04:14:23;;;;;;;9.40;9.10;;;11.40;99.90;;;;;;6321212;22;20203;-79
2023/08/07 04:16:52;;;;;;;9.30;9.00;;;11.40;99.90;;;;;;6318860;22;20299;-80
2023/08/07 04:19:19;;;;;;;9.10;8.80;;;11.40;99.90;;;;;;6319425;22;20280;-79
2023/08/07 04:21:46;;;;;;;8.70;8.50;;;11.40;99.90;;;;;;6319105;22;20208;-80
2023/08/07 04:24:13;;;;;;;9.00;8.70;;;11.40;99.90;;;;;;6320182;22;20201;-79
2023/08/07 04:26:40;;;;;;;9.13;8.83;;;11.40;99.90;;;;;;6319860;22;20205;-79
2023/08/07 04:29:07;;;;;;;9.10;8.80;;;11.40;99.90;;;;;;6319648;22;20252;-79
2023/08/07 04:31:34;;;;;;;8.93;8.63;;;11.30;99.90;;;;;;6319816;22;20287;-80
2023/08/07 04:34:04;;;;;;;9.10;8.80;;;11.30;99.90;;;;;;6320109;22;20229;-79
2023/08/07 04:36:31;;;;;;;9.27;8.97;;;11.30;99.90;;;;;;6326274;22;20219;-79
2023/08/07 04:38:58;;;;;;;9.13;8.83;;;11.40;99.90;;;;;;6316982;22;20270;-78
2023/08/07 04:41:26;;;;;;;9.10;8.80;;;11.40;99.90;;;;;;6318374;22;20279;-79
2023/08/07 04:43:53;;;;;;;9.10;8.80;;;11.40;99.90;;;;;;6326756;22;20278;-81
2023/08/07 04:46:20;;;;;;;9.03;8.73;;;11.30;99.90;;;;;;6329017;22;20318;-81
2023/08/07 04:48:48;;;;;;;9.10;8.80;;;11.30;99.90;;;;;;6329628;22;20193;-81
2023/08/07 04:51:16;;;;;;;8.90;8.60;;;11.30;99.90;;;;;;6326312;22;20181;-80
2023/08/07 04:53:43;;;;;;;9.00;8.70;;;11.40;99.90;;;;;;6327005;22;20207;-81
2023/08/07 04:56:11;;;;;;;8.83;8.53;;;11.40;99.90;;;;;;6326407;22;20208;-81
2023/08/07 04:58:38;;;;;;;8.87;8.57;;;11.40;99.90;;;;;;6326450;22;20190;-79
2023/08/07 05:01:06;;;;;;;9.03;8.73;;;11.30;99.90;;;;;;6327442;22;20263;-82
2023/08/07 05:03:33;;;;;;;8.90;8.60;;;11.30;99.90;;;;;;6327955;22;20189;-80
2023/08/07 05:06:01;;;;;;;9.00;8.70;;;11.40;99.90;;;;;;6325516;22;20209;-79
2023/08/07 05:08:30;;;;;;;8.90;8.60;;;11.40;99.90;;;;;;6320669;22;20239;-79
2023/08/07 05:10:57;;;;;;;8.50;8.30;;;11.40;99.90;;;;;;6318989;22;20204;-80
2023/08/07 05:13:24;;;;;;;9.03;8.73;;;11.40;99.90;;;;;;6318784;22;20196;-79
2023/08/07 05:15:51;;;;;;;8.57;8.37;;;11.40;99.90;;;;;;6319581;22;20251;-80
2023/08/07 05:18:19;;;;;;;9.10;8.80;;;11.40;99.90;;;;;;6319264;22;20197;-80
2023/08/07 05:20:46;;;;;;;8.93;8.63;;;11.40;99.90;;;;;;6320329;22;20185;-79
2023/08/07 05:23:13;;;;;;;8.60;8.40;;;11.40;99.90;;;;;;6320939;22;20272;-79
2023/08/07 05:25:41;;;;;;;9.10;8.80;;;11.40;99.90;;;;;;6328160;22;20228;-80
2023/08/07 05:28:08;;;;;;;8.50;8.30;;;11.40;99.90;;;;;;6323033;22;20195;-79
2023/08/07 05:30:35;;;;;;;9.10;8.80;;;11.40;99.90;;;;;;6323344;22;20197;-80
2023/08/07 05:33:02;;;;;;;9.07;8.77;;;11.30;99.90;;;;;;6323559;22;20201;-80
2023/08/07 05:35:29;;;;;;;8.50;8.30;;;11.30;99.90;;;;;;6324423;22;20209;-80
2023/08/07 05:37:56;;;;;;;8.53;8.33;;;11.40;99.90;;;;;;6322984;22;20216;-81
2023/08/07 05:40:24;;;;;;;8.80;8.50;;;11.30;99.90;;;;;;6323886;22;20258;-79
2023/08/07 05:42:52;;;;;;;9.00;8.70;;;11.30;99.90;;;;;;6322778;22;20205;-80
2023/08/07 05:45:19;;;;;;;8.60;8.40;;;11.40;99.90;;;;;;6324268;22;20200;-80
2023/08/07 05:47:46;;;;;;;8.97;8.67;;;11.40;99.90;;;;;;6324475;22;20212;-80
2023/08/07 05:50:14;;;;;;;8.60;8.40;;;11.40;99.90;;;;;;6324962;22;20197;-78
2023/08/07 05:52:41;;;;;;;8.80;8.50;;;11.40;99.90;;;;;;6324553;22;20196;-79
2023/08/07 05:55:09;;;;;;;8.70;8.50;;;11.40;99.90;;;;;;6327250;22;20225;-79
2023/08/07 05:57:36;;;;;;;8.53;8.33;;;11.40;99.90;;;;;;6329320;22;20288;-79
2023/08/07 06:00:07;;;;;;;8.67;8.40;;;11.50;99.90;;;;;;6329673;22;20228;-80
2023/08/07 06:02:34;;;;;;;8.30;8.10;;;11.50;99.90;;;;;;6327499;22;20228;-79
2023/08/07 06:05:01;;;;;;;8.17;7.97;;;11.50;99.90;;;;;;6327965;22;20193;-79
2023/08/07 06:07:29;;;;;;;8.20;8.00;;;11.50;99.90;;;;;;6327515;22;20197;-79
2023/08/07 06:09:56;;;;;;;8.37;8.17;;;11.50;99.90;;;;;;6327187;22;20189;-80
2023/08/07 06:12:23;;;;;;;8.67;8.43;;;11.50;99.90;;;;;;6326111;22;20201;-79
2023/08/07 06:14:50;;;;;;;8.40;8.20;;;11.50;99.90;;;;;;6327036;22;20189;-80
2023/08/07 06:17:19;;;;;;;8.23;8.03;;;11.50;99.90;;;;;;6338693;22;20193;-79
2023/08/07 06:19:46;;;;;;;8.00;7.80;;;11.50;99.90;;;;;;6336675;22;20197;-79
2023/08/07 06:22:13;;;;;;;8.27;8.07;;;11.50;99.90;;;;;;6338576;22;20189;-80
2023/08/07 06:24:40;;;;;;;8.40;8.20;;;11.50;99.90;;;;;;6338521;22;20193;-80
2023/08/07 06:27:08;;;;;;;8.20;8.00;;;11.60;99.90;;;;;;6338815;22;20232;-80
2023/08/07 06:29:35;;;;;;;8.43;8.23;;;11.60;99.90;;;;;;6336985;22;20196;-80
2023/08/07 06:32:02;;;;;;;8.23;8.03;;;11.60;99.90;;;;;;6337316;22;20255;-80
2023/08/07 06:34:30;;;;;;;8.20;8.00;;;11.60;99.90;;;;;;6334320;22;20196;-80
2023/08/07 06:36:58;;;;;;;8.20;8.00;;;11.60;99.90;;;;;;6330167;22;20196;-80
2023/08/07 06:39:25;;;;;;;8.50;8.30;;;11.60;99.90;;;;;;6335994;22;20209;-80
2023/08/07 06:41:52;;;;;;;8.57;8.37;;;11.60;99.90;;;;;;6335626;22;20200;-80
2023/08/07 06:44:19;;;;;;;8.50;8.30;;;11.60;99.90;;;;;;6333742;22;20205;-80
2023/08/07 06:46:46;;;;;;;8.13;7.93;;;11.60;99.90;;;;;;6338205;22;20215;-80
2023/08/07 06:49:13;;;;;;;8.43;8.23;;;11.70;99.90;;;;;;6338669;22;20200;-80
2023/08/07 06:51:42;;;;;;;8.20;8.00;;;11.70;99.90;;;;;;6339203;22;20282;-81
2023/08/07 06:54:09;;;;;;;8.27;8.07;;;11.70;99.90;;;;;;6342157;22;20181;-80
2023/08/07 06:56:38;;;;;;;8.37;8.17;;;11.70;99.90;;;;;;6342136;22;20201;-80
2023/08/07 06:59:05;;;;;;;8.20;8.00;;;11.70;99.90;;;;;;6342465;22;20174;-80
2023/08/07 07:01:32;;;;;;;7.80;7.60;;;11.70;99.90;;;;;;6339968;22;20173;-80
2023/08/07 07:04:00;;;;;;;8.00;7.80;;;11.70;99.90;;;;;;6337228;22;20201;-80
2023/08/07 07:06:27;;;;;;;8.10;7.90;;;11.70;99.90;;;;;;6339506;22;20195;-80
2023/08/07 07:08:55;;;;;;;8.37;8.17;;;11.70;99.90;;;;;;6340405;22;20193;-79
2023/08/07 07:11:24;;;;;;;8.40;8.20;;;11.80;99.90;;;;;;6338709;22;20181;-80
2023/08/07 07:13:51;;;;;;;8.33;8.13;;;11.80;99.90;;;;;;6334943;22;20255;-81
2023/08/07 07:16:18;;;;;;;8.30;8.10;;;11.80;99.90;;;;;;6326522;22;20207;-80
2023/08/07 07:18:45;;;;;;;8.20;8.00;;;11.80;99.90;;;;;;6324586;22;20311;-80
2023/08/07 07:21:12;;;;;;;8.20;8.00;;;11.80;99.90;;;;;;6325587;22;20252;-80
2023/08/07 07:23:39;;;;;;;8.10;7.90;;;11.80;99.90;;;;;;6325731;22;20200;-80
2023/08/07 07:26:08;;;;;;;8.27;8.07;;;11.90;99.90;;;;;;6310785;22;20217;-80
2023/08/07 07:28:35;;;;;;;8.40;8.20;;;11.90;99.90;;;;;;6323599;22;20196;-80
2023/08/07 07:31:03;;;;;;;8.10;7.90;;;11.90;99.90;;;;;;6323761;22;20201;-80
2023/08/07 07:33:31;;;;;;;8.40;8.20;;;11.90;99.90;;;;;;6323430;22;20193;-81
2023/08/07 07:35:58;;;;;;;8.50;8.30;;;11.90;99.90;;;;;;6323080;22;20197;-81
2023/08/07 07:38:26;;;;;;;8.37;8.17;;;11.90;99.90;;;;;;6323110;22;20259;-80
2023/08/07 07:40:56;;;;;;;8.40;8.20;;;11.90;99.90;;;;;;6322093;22;20197;-80
2023/08/07 07:43:25;;;;;;;8.60;8.40;;;12.00;99.90;;;;;;6321839;22;20203;-80
2023/08/07 07:45:52;;;;;;;8.57;8.37;;;12.00;99.90;;;;;;6322548;22;20201;-79
2023/08/07 07:48:19;;;;;;;8.43;8.23;;;12.10;99.90;;;;;;6323220;22;20204;-80
2023/08/07 07:50:46;;;;;;;8.63;8.43;;;12.10;99.90;;;;;;6322839;22;20193;-80
2023/08/07 07:53:16;;;;;;;8.60;8.40;;;12.10;99.90;;;;;;6325289;22;20204;-79
2023/08/07 07:55:48;;;;;;;8.53;8.33;;;12.10;99.90;;;;;;6328644;22;20274;-80
2023/08/07 07:58:15;;;;;;;8.60;8.40;;;12.10;99.90;;;;;;6331931;22;20240;-80
2023/08/07 08:00:44;;;;;;;9.20;8.90;;;12.20;99.90;;;;;;6327001;22;20231;-80
2023/08/07 08:03:12;;;;;;;8.70;8.50;;;12.20;99.90;;;;;;6322592;22;20215;-79
2023/08/07 08:05:39;;;;;;;8.40;8.20;;;12.20;99.90;;;;;;6319903;22;20209;-79
2023/08/07 08:08:07;;;;;;;8.57;8.37;;;12.20;99.90;;;;;;6318244;22;20251;-79
2023/08/07 08:10:35;;;;;;;8.40;8.20;;;12.20;99.90;;;;;;6317455;22;20201;-78
2023/08/07 08:13:03;;;;;;;8.43;8.23;;;12.20;99.90;;;;;;6317322;22;20231;-79
2023/08/07 08:15:31;;;;;;;8.50;8.30;;;12.20;99.90;;;;;;6316914;22;20197;-79
2023/08/07 08:17:59;;;;;;;8.50;8.30;;;12.20;99.90;;;;;;6316712;22;20291;-79
2023/08/07 08:20:26;;;;;;;8.60;8.40;;;12.20;99.90;;;;;;6316201;22;20199;-78
2023/08/07 08:22:53;;;;;;;9.10;8.80;;;12.20;99.90;;;;;;6315670;22;20196;-79
2023/08/07 08:25:21;;;;;;;8.67;8.47;;;12.20;99.90;;;;;;6315329;22;20729;-79
2023/08/07 08:27:51;;;;;;;8.73;8.53;;;12.20;99.90;;;;;;6315217;22;20251;-79
2023/08/07 08:30:18;;;;;;;9.27;8.97;;;12.20;99.90;;;;;;6315220;22;20211;-78
2023/08/07 08:32:45;;;;;;;8.67;8.47;;;12.20;99.90;;;;;;6314768;22;20270;-79
2023/08/07 08:35:16;;;;;;;8.70;8.50;;;12.30;99.90;;;;;;6315502;22;20655;-79
2023/08/07 08:37:43;;;;;;;9.03;8.77;;;12.30;99.90;;;;;;6316939;22;20193;-81
2023/08/07 08:40:16;;;;;;;9.40;9.10;;;12.40;99.90;;;;;;6322605;22;20199;-81
2023/08/07 08:42:44;;;;;;;9.40;9.10;;;12.40;99.90;;;;;;6315511;22;20222;-78
2023/08/07 08:45:15;;;;;;;9.20;8.90;;;12.50;99.90;;;;;;6315144;22;20263;-79
2023/08/07 08:47:44;;;;;;;9.30;9.00;;;12.50;99.90;;;;;;6316125;22;20205;-78
2023/08/07 08:50:15;;;;;;;9.47;9.17;;;12.60;99.90;;;;;;6329607;22;20267;-78
2023/08/07 08:52:45;;;;;;;9.40;9.10;;;12.70;99.90;;;;;;6314544;22;20188;-78
2023/08/07 08:55:14;;;;;;;9.40;9.10;;;12.70;99.90;;;;;;6314937;22;20250;-78
2023/08/07 08:57:42;;;;;;;9.20;8.90;;;12.70;99.90;;;;;;6316762;22;20185;-79
2023/08/07 09:00:17;;;;;;;9.60;9.30;;;12.70;99.90;;;;;;6316485;22;20204;-78
2023/08/07 09:02:46;;;;;;;9.50;9.20;;;12.70;99.90;;;;;;6317991;22;20196;-79
2023/08/07 09:05:16;;;;;;;9.43;9.13;;;12.60;99.90;;;;;;6319866;22;20204;-79
2023/08/07 09:07:46;;;;;;;9.40;9.10;;;12.70;99.90;;;;;;6319409;22;20205;-79
2023/08/07 09:10:14;;;;;;;9.77;9.47;;;12.70;99.90;;;;;;6319158;22;20193;-79
2023/08/07 09:12:45;;;;;;;9.60;9.30;;;12.70;99.90;;;;;;6319477;22;20205;-78
2023/08/07 09:15:16;;;;;;;9.50;9.20;;;12.70;99.90;;;;;;6318924;22;20189;-79
2023/08/07 09:17:46;;;;;;;9.80;9.50;;;12.70;99.90;;;;;;6319281;22;20272;-80
2023/08/07 09:20:14;;;;;;;9.40;9.10;;;12.80;99.90;;;;;;6319323;22;20197;-79
2023/08/07 09:22:42;;;;;;;9.73;9.43;;;12.80;99.90;;;;;;6319270;22;20197;-79
2023/08/07 09:25:10;;;;;;;9.73;9.43;;;12.80;99.90;;;;;;6318910;22;20284;-80
2023/08/07 10:59:33;;;;;;;;;;;;;;;;;;;;;
2023/08/07 13:40:53;;;;;;;10.30;10.00;;;13.40;99.90;;;;;;6178266;22;1701858;-86
2023/08/07 15:26:45;;;;;;;10.27;9.97;;;14.80;99.90;;;;;;6248981;22;20190;-79
2023/08/07 15:29:12;;;;;;;10.30;10.00;;;14.70;99.90;;;;;;6266331;22;20202;-79
2023/08/07 15:31:40;;;;;;;10.23;9.93;;;14.70;99.90;;;;;;6257765;22;20202;-79
2023/08/07 15:34:07;;;;;;;10.10;9.80;;;14.70;99.90;;;;;;6265946;22;20205;-80
2023/08/07 15:36:34;;;;;;;10.50;10.20;;;14.70;99.90;;;;;;6262699;22;20241;-79
2023/08/07 15:39:02;;;;;;;10.57;10.27;;;14.70;99.90;;;;;;6265114;22;20206;-80
2023/08/07 15:41:29;;;;;;;10.60;10.30;;;14.80;99.90;;;;;;6258883;22;20202;-78
2023/08/07 15:44:04;;;;;;;10.57;10.27;;;14.90;99.90;;;;;;6256480;22;20198;-78
2023/08/07 15:46:31;;;;;;;10.70;10.40;;;15.00;99.90;;;;;;6257272;22;20194;-77
2023/08/07 15:48:58;;;;;;;10.60;10.30;;;15.00;99.90;;;;;;6259869;22;20241;-79
2023/08/07 15:51:26;;;;;;;10.40;10.10;;;15.10;99.90;;;;;;6263261;22;20281;-79
2023/08/07 15:53:53;;;;;;;10.48;10.18;;;15.20;99.90;;;;;;6258592;22;20217;-78
2023/08/07 15:56:20;;;;;;;9.90;9.60;;;15.30;99.90;;;;;;6257954;22;20202;-80
2023/08/07 15:58:47;;;;;;;9.85;9.55;;;15.40;99.90;;;;;;6267281;22;20553;-79
2023/08/07 16:01:15;;;;;;;10.27;9.98;;;15.60;99.90;;;;;;6259775;22;20204;-79
2023/08/07 16:03:42;;;;;;;10.32;10.02;;;15.60;99.90;;;;;;6259417;22;20216;-79
2023/08/07 16:06:09;;;;;;;10.35;10.05;;;15.50;99.90;;;;;;6261438;22;20212;-80
2023/08/07 16:08:36;;;;;;;10.40;10.10;;;15.60;99.90;;;;;;6260207;22;20202;-80
2023/08/07 16:11:04;;;;;;;10.68;10.38;;;15.60;99.90;;;;;;6261865;22;20194;-81
2023/08/07 16:13:31;;;;;;;10.43;10.13;;;15.60;99.90;;;;;;6260511;22;20190;-80
2023/08/07 16:15:59;;;;;;;10.32;10.02;;;15.60;99.90;;;;;;6260962;22;20253;-80
2023/08/07 16:18:28;;;;;;;10.40;10.10;;;15.70;99.90;;;;;;6259150;22;20202;-80
2023/08/07 16:20:56;;;;;;;10.15;9.85;;;15.80;99.90;;;;;;6260078;22;20197;-79
2023/08/07 16:23:23;;;;;;;10.50;10.20;;;15.90;99.90;;;;;;6257949;22;20225;-80
2023/08/07 16:25:50;;;;;;;10.35;10.05;;;16.00;99.90;;;;;;6263805;22;20225;-80
2023/08/07 16:28:18;;;;;;;10.25;9.95;;;16.00;99.90;;;;;;6257251;22;20314;-79
2023/08/07 16:30:46;;;;;;;10.15;9.85;;;16.10;99.90;;;;;;6257710;22;20209;-80
2023/08/07 16:33:13;;;;;;;10.43;10.13;;;16.20;99.90;;;;;;6257467;22;20191;-80
2023/08/07 16:35:41;;;;;;;10.55;10.25;;;16.60;99.90;;;;;;6257335;22;20201;-80
2023/08/07 16:38:08;;;;;;;10.57;10.27;;;17.10;99.90;;;;;;6258073;22;20198;-80
2023/08/07 16:40:35;;;;;;;10.70;10.40;;;17.60;99.90;;;;;;6257799;22;20187;-81
2023/08/07 16:43:03;;;;;;;10.80;10.50;;;18.10;99.90;;;;;;6257084;22;20233;-80
2023/08/07 16:45:30;;;;;;;10.70;10.40;;;18.50;99.90;;;;;;6257905;22;20202;-79
2023/08/07 16:47:59;;;;;;;10.55;10.25;;;18.70;99.90;;;;;;6258031;22;20205;-80
2023/08/07 16:50:26;;;;;;;10.77;10.48;;;18.80;99.90;;;;;;6256790;22;20202;-80
2023/08/07 16:52:57;;;;;;;10.70;10.40;;;18.90;99.90;;;;;;6257757;22;20265;-80
2023/08/07 16:55:24;;;;;;;10.63;10.32;;;19.10;99.90;;;;;;6258513;22;20252;-79
2023/08/07 16:57:51;;;;;;;10.68;10.38;;;19.30;99.90;;;;;;6259270;22;20225;-80
2023/08/07 17:00:19;;;;;;;10.70;10.40;;;19.20;99.90;;;;;;6261041;22;20217;-80
2023/08/07 17:02:48;;;;;;;10.85;10.55;;;19.30;99.90;;;;;;6260783;22;20286;-80
2023/08/07 17:05:15;;;;;;;10.90;10.60;;;19.40;99.90;;;;;;6260901;22;20662;-80
2023/08/07 17:07:42;;;;;;;10.93;10.63;;;19.60;99.90;;;;;;6261156;22;20237;-80
2023/08/07 17:10:13;;;;;;;10.88;10.57;;;19.90;99.90;;;;;;6260122;22;20197;-80
2023/08/07 17:12:40;;;;;;;10.98;10.68;;;20.10;99.90;;;;;;6258204;22;20190;-79
2023/08/07 17:15:09;;;;;;;10.93;10.63;;;20.40;99.90;;;;;;6266411;22;20180;-80
2023/08/07 17:17:36;;;;;;;10.85;10.55;;;20.50;99.90;;;;;;6258876;22;20230;-80
2023/08/07 17:20:04;;;;;;;10.90;10.60;;;20.20;99.90;;;;;;6258577;22;20214;-80
2023/08/07 17:22:31;;;;;;;10.48;10.18;;;20.30;99.90;;;;;;6259471;22;20191;-80
2023/08/07 17:24:58;;;;;;;10.60;10.30;;;20.30;99.90;;;;;;6257359;22;20272;-82
2023/08/07 17:27:27;;;;;;;10.65;10.35;;;20.40;99.90;;;;;;6258920;22;20230;-80
2023/08/07 17:29:54;;;;;;;10.43;10.13;;;20.40;99.90;;;;;;6259191;22;20255;-79
2023/08/07 17:32:22;;;;;;;10.40;10.10;;;20.50;99.90;;;;;;6258635;22;20207;-79
2023/08/07 17:34:49;;;;;;;10.35;10.05;;;20.60;99.90;;;;;;6258566;22;20246;-78
2023/08/07 17:37:19;;;;;;;10.40;10.10;;;20.50;99.90;;;;;;6259576;22;20206;-79
2023/08/07 17:39:46;;;;;;;10.30;10.00;;;20.30;99.90;;;;;;6263076;22;20201;-79
2023/08/07 17:42:13;;;;;;;10.02;9.73;;;20.20;99.90;;;;;;6260695;22;20201;-79
2023/08/07 17:44:42;;;;;;;10.20;9.90;;;20.00;99.90;;;;;;6258905;22;20228;-82
2023/08/07 17:47:09;;;;;;;10.20;9.90;;;19.90;99.90;;;;;;6259087;22;20285;-79
2023/08/07 17:49:37;;;;;;;10.20;9.90;;;19.80;99.90;;;;;;6259200;22;20225;-78
2023/08/07 17:52:05;;;;;;;10.35;10.05;;;19.60;99.90;;;;;;6255466;22;20194;-78
2023/08/07 17:54:34;;;;;;;10.40;10.10;;;19.30;99.90;;;;;;6256013;22;20194;-77
2023/08/07 17:57:01;;;;;;;10.20;9.90;;;18.90;99.90;;;;;;6256627;22;20205;-78
2023/08/07 17:59:28;;;;;;;10.10;9.80;;;18.50;99.90;;;;;;6256898;22;20194;-78
2023/08/07 18:01:57;;;;;;;10.05;9.75;;;18.10;99.90;;;;;;6256000;22;20262;-78
2023/08/07 18:04:24;;;;;;;10.27;9.98;;;17.70;99.90;;;;;;6263215;22;20198;-79
2023/08/07 18:06:52;;;;;;;10.07;9.77;;;17.40;99.90;;;;;;6266695;22;20213;-78
2023/08/07 18:09:19;;;;;;;9.48;9.18;;;17.20;99.90;;;;;;6265929;22;20288;-78
2023/08/07 18:11:46;;;;;;;9.45;9.15;;;17.10;99.90;;;;;;6268844;22;20218;-79
2023/08/07 18:14:13;;;;;;;9.70;9.40;;;16.90;99.90;;;;;;6265572;22;20194;-79
2023/08/07 18:16:40;;;;;;;9.60;9.30;;;16.80;99.90;;;;;;6261754;22;20209;-79
2023/08/07 18:19:09;;;;;;;9.73;9.43;;;16.50;99.90;;;;;;6259703;22;20281;-79
2023/08/07 18:21:36;;;;;;;10.18;9.88;;;16.40;99.90;;;;;;6258270;22;20247;-79
2023/08/07 18:24:03;;;;;;;10.13;9.82;;;16.30;99.90;;;;;;6262937;22;20273;-80
2023/08/07 18:26:30;;;;;;;9.82;9.52;;;16.10;99.90;;;;;;6260362;22;20237;-79
2023/08/07 18:28:57;;;;;;;10.10;9.80;;;16.00;99.90;;;;;;6260073;22;20195;-79
2023/08/07 18:31:30;;;;;;;10.25;9.95;;;15.90;99.90;;;;;;6259727;22;20277;-80
2023/08/07 18:33:57;;;;;;;10.60;10.30;;;15.80;99.90;;;;;;6260956;22;20250;-80
2023/08/07 18:36:28;;;;;;;10.27;9.98;;;15.70;99.90;;;;;;6261065;22;20190;-79
2023/08/07 18:38:55;;;;;;;10.20;9.90;;;15.60;99.90;;;;;;6260470;22;20246;-80
2023/08/07 18:41:22;;;;;;;10.25;9.95;;;15.50;99.90;;;;;;6259814;22;20208;-80
2023/08/07 18:43:49;;;;;;;10.70;10.40;;;15.40;99.90;;;;;;6259678;22;20201;-79
2023/08/07 18:46:17;;;;;;;10.68;10.38;;;15.30;99.90;;;;;;6260789;22;20213;-79
2023/08/07 18:48:44;;;;;;;10.70;10.40;;;15.20;99.90;;;;;;6259003;22;20656;-79
2023/08/07 18:51:11;;;;;;;10.80;10.50;;;15.20;99.90;;;;;;6260670;22;20198;-80
2023/08/07 18:53:40;;;;;;;10.70;10.40;;;15.10;99.90;;;;;;6259867;22;20213;-79
2023/08/07 18:56:07;;;;;;;11.00;10.70;;;15.10;99.90;;;;;;6261957;22;20237;-79
2023/08/07 18:58:34;;;;;;;10.73;10.43;;;15.00;99.90;;;;;;6267256;22;20198;-80
2023/08/07 19:01:01;;;;;;;10.70;10.40;;;15.00;99.90;;;;;;6263523;22;20201;-78
2023/08/07 19:03:28;;;;;;;10.05;9.75;;;14.90;99.90;;;;;;6263057;22;20190;-79
2023/08/07 19:05:55;;;;;;;10.60;10.30;;;14.90;99.90;;;;;;6266292;22;20190;-80
2023/08/07 19:08:22;;;;;;;10.43;10.13;;;14.80;99.90;;;;;;6263164;22;20244;-80
2023/08/07 19:10:51;;;;;;;10.93;10.63;;;14.80;99.90;;;;;;6265397;22;20225;-79
2023/08/07 19:13:18;;;;;;;10.50;10.20;;;14.70;99.90;;;;;;6265778;22;20191;-79
2023/08/07 19:15:47;;;;;;;9.60;9.30;;;14.70;99.90;;;;;;6265543;22;20253;-79
2023/08/07 19:18:15;;;;;;;10.00;9.70;;;14.70;99.90;;;;;;6263596;22;20198;-79
2023/08/07 19:20:43;;;;;;;10.10;9.80;;;14.60;99.90;;;;;;6268530;22;20222;-79
2023/08/07 19:23:10;;;;;;;9.67;9.37;;;14.70;99.90;;;;;;6265664;22;20202;-79
2023/08/07 19:25:37;;;;;;;10.00;9.70;;;14.60;99.90;;;;;;6262946;22;20252;-80
2023/08/07 19:28:07;;;;;;;9.90;9.60;;;14.60;99.90;;;;;;6265016;22;20213;-80
2023/08/07 19:30:34;;;;;;;10.13;9.83;;;14.50;99.90;;;;;;6263165;22;20255;-79
2023/08/07 19:33:01;;;;;;;10.27;9.97;;;14.50;99.90;;;;;;6267404;22;20183;-79
2023/08/07 19:35:28;;;;;;;9.90;9.60;;;14.50;99.90;;;;;;6265997;22;20214;-80
2023/08/07 19:37:55;;;;;;;9.93;9.63;;;14.40;99.90;;;;;;6262981;22;20269;-80
2023/08/07 19:40:24;;;;;;;9.80;9.50;;;14.40;99.90;;;;;;6261539;22;20246;-79
2023/08/07 19:42:52;;;;;;;9.77;9.47;;;14.40;99.90;;;;;;6259410;22;20194;-79
2023/08/07 19:45:20;;;;;;;9.87;9.57;;;14.30;99.90;;;;;;6268901;22;20190;-79
2023/08/07 19:47:48;;;;;;;9.70;9.40;;;14.20;99.90;;;;;;6270620;22;20209;-79
2023/08/07 19:50:16;;;;;;;9.50;9.20;;;14.20;99.90;;;;;;6267525;22;20202;-80
2023/08/07 19:52:43;;;;;;;9.87;9.57;;;14.10;99.90;;;;;;6268345;22;20186;-80
2023/08/07 19:55:10;;;;;;;10.03;9.73;;;14.00;99.90;;;;;;6266310;22;20276;-80
2023/08/07 19:57:38;;;;;;;9.60;9.30;;;14.00;99.90;;;;;;6262432;22;20219;-80
2023/08/07 20:00:07;;;;;;;9.90;9.60;;;14.00;99.90;;;;;;6260363;22;20190;-80
2023/08/07 20:02:37;;;;;;;9.80;9.50;;;13.90;99.90;;;;;;6267634;22;20194;-80
2023/08/07 20:05:05;;;;;;;9.60;9.30;;;13.90;99.90;;;;;;6266227;22;20539;-79
2023/08/07 20:07:33;;;;;;;10.03;9.73;;;13.80;99.90;;;;;;6264318;22;20206;-80